createdAt,value
2023-04-20T00:00:18.021Z,4.30
2023-04-20T00:02:45.320Z,4.25
2023-04-20T00:05:12.494Z,4.10
2023-04-20T00:07:41.553Z,4.05
2023-04-20T00:10:09.323Z,4.13
2023-04-20T00:12:36.102Z,3.90
2023-04-20T00:15:03.159Z,4.00
2023-04-20T00:17:29.865Z,3.92
2023-04-20T00:19:56.640Z,3.95
2023-04-20T00:22:23.489Z,4.20
2023-04-20T00:24:50.295Z,3.78
2023-04-20T00:27:16.947Z,4.13
2023-04-20T00:29:43.761Z,3.80
2023-04-20T00:32:10.438Z,3.80
2023-04-20T00:34:37.148Z,3.95
2023-04-20T00:37:03.787Z,4.43
2023-04-20T00:39:30.348Z,4.30
2023-04-20T00:42:05.885Z,4.50
2023-04-20T00:44:33.388Z,3.88
2023-04-20T00:47:03.331Z,4.00
2023-04-20T00:49:31.712Z,4.10
2023-04-20T00:51:59.324Z,3.92
2023-04-20T00:54:30.585Z,4.22
2023-04-20T00:56:58.031Z,4.07
2023-04-20T00:59:24.830Z,3.90
2023-04-20T01:01:51.472Z,3.92
2023-04-20T01:04:19.067Z,3.78
2023-04-20T01:06:46.218Z,4.03
2023-04-20T01:09:13.024Z,4.32
2023-04-20T01:11:39.788Z,3.92
2023-04-20T01:14:06.898Z,4.38
2023-04-20T01:16:49.097Z,3.60
2023-04-20T01:19:16.183Z,4.30
2023-04-20T01:21:42.952Z,4.03
2023-04-20T01:24:09.679Z,4.38
2023-04-20T01:26:36.255Z,4.40
2023-04-20T01:29:02.804Z,4.72
2023-04-20T01:31:29.908Z,4.32
2023-04-20T01:33:57.511Z,4.80
2023-04-20T01:36:24.092Z,5.10
2023-04-20T01:38:50.967Z,4.40
2023-04-20T01:41:17.610Z,4.70
2023-04-20T01:43:44.339Z,4.63
2023-04-20T01:46:10.989Z,4.63
2023-04-20T01:48:40.578Z,5.20
2023-04-20T01:51:08.621Z,4.32
2023-04-20T01:53:35.241Z,5.47
2023-04-20T01:56:01.842Z,4.28
2023-04-20T01:58:28.888Z,5.10
2023-04-20T02:00:55.575Z,4.40
2023-04-20T02:03:22.340Z,4.95
2023-04-20T02:05:49.235Z,4.38
2023-04-20T02:08:15.896Z,4.60
2023-04-20T02:10:42.546Z,4.60
2023-04-20T02:13:09.174Z,4.93
2023-04-20T02:15:36.361Z,4.80
2023-04-20T02:18:03.840Z,4.95
2023-04-20T02:20:30.658Z,5.07
2023-04-20T02:22:57.327Z,4.80
2023-04-20T02:25:24.155Z,5.07
2023-04-20T02:27:51.178Z,4.65
2023-04-20T02:30:17.941Z,4.75
2023-04-20T02:33:06.134Z,4.82
2023-04-20T02:35:32.752Z,4.72
2023-04-20T02:38:10.879Z,4.68
2023-04-20T02:40:40.911Z,4.93
2023-04-20T02:43:07.549Z,4.40
2023-04-20T02:45:34.116Z,4.68
2023-04-20T02:48:00.810Z,4.53
2023-04-20T02:50:27.482Z,4.40
2023-04-20T02:53:08.471Z,4.72
2023-04-20T02:55:35.105Z,4.88
2023-04-20T02:58:01.855Z,4.60
2023-04-20T03:00:28.458Z,4.78
2023-04-20T03:02:55.128Z,4.70
2023-04-20T03:05:21.941Z,4.72
2023-04-20T03:07:48.549Z,5.22
2023-04-20T03:10:15.210Z,5.75
2023-04-20T03:12:41.806Z,4.93
2023-04-20T03:15:09.113Z,5.30
2023-04-20T03:17:35.952Z,4.80
2023-04-20T03:20:02.895Z,5.20
2023-04-20T03:22:29.443Z,5.32
2023-04-20T03:24:56.340Z,5.18
2023-04-20T03:27:23.198Z,5.50
2023-04-20T03:29:50.533Z,5.50
2023-04-20T03:32:17.140Z,4.75
2023-04-20T03:34:43.749Z,4.90
2023-04-20T03:37:10.386Z,5.07
2023-04-20T03:39:40.627Z,4.97
2023-04-20T03:42:07.225Z,5.30
2023-04-20T03:44:33.839Z,4.88
2023-04-20T03:47:00.506Z,4.85
2023-04-20T03:49:29.600Z,5.47
2023-04-20T03:51:56.173Z,5.40
2023-04-20T03:54:22.746Z,5.25
2023-04-20T03:56:49.686Z,5.47
2023-04-20T03:59:16.468Z,6.13
2023-04-20T04:01:44.302Z,6.10
2023-04-20T04:04:17.940Z,6.05
2023-04-20T04:06:46.498Z,5.50
2023-04-20T04:09:13.234Z,6.03
2023-04-20T04:11:42.996Z,6.72
2023-04-20T04:14:10.482Z,6.53
2023-04-20T04:16:37.165Z,6.38
2023-04-20T04:19:12.652Z,6.82
2023-04-20T04:21:39.411Z,6.63
2023-04-20T04:24:07.620Z,7.13
2023-04-20T04:26:34.401Z,6.15
2023-04-20T04:29:02.349Z,7.30
2023-04-20T04:31:29.150Z,7.07
2023-04-20T04:33:56.320Z,7.00
2023-04-20T04:36:24.216Z,7.05
2023-04-20T04:38:51.280Z,6.97
2023-04-20T04:41:18.650Z,6.55
2023-04-20T04:43:45.638Z,6.97
2023-04-20T04:46:13.299Z,6.78
2023-04-20T04:48:42.085Z,7.30
2023-04-20T04:51:09.736Z,7.20
2023-04-20T04:53:36.895Z,7.00
2023-04-20T04:56:04.645Z,7.45
2023-04-20T04:58:36.517Z,7.40
2023-04-20T05:01:07.107Z,7.25
2023-04-20T05:03:33.979Z,7.25
2023-04-20T05:06:00.766Z,7.20
2023-04-20T05:08:27.409Z,7.05
2023-04-20T05:10:54.056Z,7.75
2023-04-20T05:13:20.709Z,7.07
2023-04-20T05:15:47.602Z,7.13
2023-04-20T05:18:14.375Z,7.40
2023-04-20T05:20:41.018Z,7.72
2023-04-20T05:23:07.750Z,7.95
2023-04-20T05:25:34.745Z,7.25
2023-04-20T05:28:01.425Z,7.53
2023-04-20T05:30:28.098Z,8.35
2023-04-20T05:32:55.118Z,7.90
2023-04-20T05:35:22.318Z,8.25
2023-04-20T05:37:49.310Z,8.30
2023-04-20T05:40:16.100Z,8.32
2023-04-20T05:42:42.964Z,8.10
2023-04-20T05:45:10.501Z,8.07
2023-04-20T05:47:37.250Z,7.97
2023-04-20T05:50:04.774Z,7.45
2023-04-20T05:52:31.724Z,7.57
2023-04-20T05:55:00.801Z,7.40
2023-04-20T05:57:27.495Z,7.63
2023-04-20T05:59:55.929Z,6.93
2023-04-20T06:02:22.912Z,7.15
2023-04-20T06:04:49.879Z,7.05
2023-04-20T06:07:16.684Z,8.27
2023-04-20T06:09:43.547Z,7.10
2023-04-20T06:12:10.456Z,7.00
2023-04-20T06:14:37.299Z,7.22
2023-04-20T06:17:03.897Z,7.05
2023-04-20T06:19:30.578Z,7.90
2023-04-20T06:22:00.179Z,6.90
2023-04-20T06:24:27.954Z,6.55
2023-04-20T06:26:54.810Z,7.15
2023-04-20T06:29:21.538Z,6.60
2023-04-20T06:31:48.800Z,6.80
2023-04-20T06:34:16.191Z,6.47
2023-04-20T06:36:43.701Z,6.80
2023-04-20T06:39:13.204Z,7.55
2023-04-20T06:41:39.923Z,7.20
2023-04-20T06:44:06.801Z,6.93
2023-04-20T06:46:33.556Z,7.47
2023-04-20T06:49:00.299Z,6.95
2023-04-20T06:51:28.295Z,7.03
2023-04-20T06:53:55.727Z,6.82
2023-04-20T06:56:22.423Z,6.80
2023-04-20T06:58:49.082Z,5.90
2023-04-20T07:01:15.974Z,6.30
2023-04-20T07:03:43.522Z,6.40
2023-04-20T07:06:11.272Z,6.00
2023-04-20T07:08:39.614Z,6.90
2023-04-20T07:11:06.235Z,7.13
2023-04-20T07:13:33.939Z,6.47
2023-04-20T07:16:00.877Z,7.15
2023-04-20T07:18:27.622Z,6.70
2023-04-20T07:20:54.327Z,6.10
2023-04-20T07:23:21.332Z,6.70
2023-04-20T07:25:48.127Z,6.40
2023-04-20T07:28:14.825Z,6.30
2023-04-20T07:30:41.501Z,5.60
2023-04-20T07:33:09.109Z,6.05
2023-04-20T07:35:35.860Z,6.30
2023-04-20T07:38:02.609Z,6.05
2023-04-20T07:40:29.246Z,6.38
2023-04-20T07:42:55.904Z,6.00
2023-04-20T07:45:24.047Z,6.55
2023-04-20T07:47:52.329Z,6.07
2023-04-20T07:50:19.065Z,5.88
2023-04-20T07:52:45.848Z,5.70
2023-04-20T07:55:14.201Z,5.38
2023-04-20T07:57:41.598Z,5.38
2023-04-20T08:00:09.938Z,5.50
2023-04-20T08:02:36.800Z,6.13
2023-04-20T08:05:04.139Z,5.10
2023-04-20T08:07:31.114Z,5.13
2023-04-20T08:09:57.812Z,5.60
2023-04-20T08:12:24.548Z,5.70
2023-04-20T08:14:51.896Z,5.60
2023-04-20T08:17:18.504Z,5.47
2023-04-20T08:19:46.113Z,5.35
2023-04-20T08:22:12.963Z,5.82
2023-04-20T08:24:39.631Z,5.63
2023-04-20T08:27:08.974Z,5.45
2023-04-20T08:29:36.603Z,5.15
2023-04-20T08:32:03.690Z,6.18
2023-04-20T08:34:30.439Z,6.35
2023-04-20T08:36:57.030Z,6.00
2023-04-20T08:39:24.309Z,5.03
2023-04-20T08:41:55.250Z,5.60
2023-04-20T08:44:22.215Z,6.00
2023-04-20T08:46:50.084Z,5.68
2023-04-20T08:49:18.218Z,5.13
2023-04-20T08:51:45.977Z,5.40
2023-04-20T08:54:13.145Z,6.78
2023-04-20T08:56:41.567Z,5.53
2023-04-20T08:59:12.788Z,5.95
2023-04-20T09:01:41.671Z,6.15
2023-04-20T09:04:20.082Z,5.70
2023-04-20T09:06:51.770Z,5.53
2023-04-20T09:09:19.988Z,5.85
2023-04-20T09:11:47.308Z,5.65
2023-04-20T09:14:16.960Z,4.95
2023-04-20T09:16:54.299Z,5.07
2023-04-20T09:19:28.680Z,5.70
2023-04-20T09:21:57.984Z,5.40
2023-04-20T09:24:32.063Z,5.00
2023-04-20T09:26:59.260Z,4.90
2023-04-20T09:29:25.984Z,5.30
2023-04-20T09:31:52.897Z,5.15
2023-04-20T09:34:20.574Z,5.10
2023-04-20T09:36:51.644Z,5.30
2023-04-20T09:39:20.563Z,4.97
2023-04-20T09:41:52.162Z,5.00
2023-04-20T09:44:19.828Z,4.63
2023-04-20T09:46:46.893Z,4.60
2023-04-20T09:49:15.135Z,4.38
2023-04-20T09:51:47.579Z,4.20
2023-04-20T09:54:15.693Z,4.60
2023-04-20T09:56:43.018Z,4.18
2023-04-20T09:59:11.755Z,4.30
2023-04-20T10:01:38.729Z,4.07
2023-04-20T10:04:14.352Z,3.95
2023-04-20T10:06:57.033Z,3.88
2023-04-20T10:09:26.091Z,4.00
2023-04-20T10:11:55.073Z,4.32
2023-04-20T10:14:26.483Z,4.28
2023-04-20T10:17:05.189Z,3.70
2023-04-20T10:19:41.911Z,4.03
2023-04-20T10:22:10.743Z,3.67
2023-04-20T10:24:38.277Z,3.90
2023-04-20T10:27:19.463Z,3.53
2023-04-20T10:29:46.721Z,3.63
2023-04-20T10:32:27.745Z,3.70
2023-04-20T10:35:08.555Z,4.18
2023-04-20T10:37:35.971Z,3.95
2023-04-20T10:40:06.785Z,3.80
2023-04-20T10:42:46.486Z,4.47
2023-04-20T10:45:13.539Z,3.90
2023-04-20T10:47:45.243Z,4.03
2023-04-20T10:50:16.163Z,5.38
2023-04-20T10:52:44.247Z,4.90
2023-04-20T10:55:24.901Z,4.00
2023-04-20T10:57:52.553Z,3.60
2023-04-20T11:00:27.343Z,3.65
2023-04-20T11:02:56.678Z,3.60
2023-04-20T11:05:27.020Z,3.45
2023-04-20T11:07:55.262Z,3.40
2023-04-20T11:10:42.060Z,3.30
2023-04-20T11:13:29.206Z,3.72
2023-04-20T11:15:56.091Z,4.10
2023-04-20T11:18:22.782Z,4.03
2023-04-20T11:20:54.897Z,3.80
2023-04-20T11:23:23.329Z,3.63
2023-04-20T11:25:57.236Z,3.50
2023-04-20T11:28:25.842Z,3.88
2023-04-20T11:30:52.752Z,3.90
2023-04-20T11:33:30.989Z,4.70
2023-04-20T11:35:58.743Z,4.20
2023-04-20T11:38:33.341Z,3.58
2023-04-20T11:41:04.580Z,3.30
2023-04-20T11:43:32.499Z,2.88
2023-04-20T11:46:02.992Z,3.00
2023-04-20T11:48:33.105Z,2.85
2023-04-20T11:50:59.990Z,2.50
2023-04-20T11:53:26.752Z,2.70
2023-04-20T11:55:53.534Z,2.90
2023-04-20T11:58:20.228Z,2.78
2023-04-20T12:00:46.958Z,3.05
2023-04-20T12:03:13.833Z,3.10
2023-04-20T12:05:40.756Z,3.13
2023-04-20T12:08:08.224Z,3.00
2023-04-20T12:10:35.033Z,3.90
2023-04-20T12:13:01.895Z,3.90
2023-04-20T12:15:28.578Z,3.88
2023-04-20T12:17:55.646Z,2.83
2023-04-20T12:20:22.583Z,4.20
2023-04-20T12:22:49.450Z,4.35
2023-04-20T12:25:16.287Z,4.13
2023-04-20T12:27:43.038Z,3.78
2023-04-20T12:30:13.152Z,3.60
2023-04-20T12:32:39.917Z,3.92
2023-04-20T12:35:08.399Z,4.00
2023-04-20T12:37:35.666Z,3.90
2023-04-20T12:40:02.750Z,3.80
2023-04-20T12:42:29.661Z,3.75
2023-04-20T12:44:56.533Z,3.20
2023-04-20T12:47:23.150Z,3.80
2023-04-20T12:49:49.957Z,3.55
2023-04-20T12:52:16.649Z,3.25
2023-04-20T12:54:44.098Z,2.50
2023-04-20T12:57:11.172Z,2.35
2023-04-20T12:59:37.761Z,2.50
2023-04-20T13:02:04.700Z,2.58
2023-04-20T13:04:31.549Z,3.08
2023-04-20T13:06:58.235Z,2.50
2023-04-20T13:09:26.857Z,2.47
2023-04-20T13:11:53.834Z,2.88
2023-04-20T13:14:20.870Z,3.05
2023-04-20T13:16:47.914Z,2.42
2023-04-20T13:19:14.627Z,2.63
2023-04-20T13:21:41.369Z,2.30
2023-04-20T13:24:08.153Z,2.20
2023-04-20T13:26:35.268Z,2.40
2023-04-20T13:29:02.038Z,2.72
2023-04-20T13:31:31.992Z,3.00
2023-04-20T13:33:58.786Z,3.22
2023-04-20T13:36:26.070Z,2.90
2023-04-20T13:38:53.414Z,2.72
2023-04-20T13:41:20.342Z,3.45
2023-04-20T13:43:46.956Z,3.50
2023-04-20T13:46:15.239Z,3.17
2023-04-20T13:48:44.770Z,2.75
2023-04-20T13:51:11.877Z,3.00
2023-04-20T13:53:39.851Z,2.70
2023-04-20T13:56:06.901Z,2.90
2023-04-20T13:58:33.483Z,3.00
2023-04-20T14:01:00.155Z,2.95
2023-04-20T14:03:27.266Z,3.03
2023-04-20T14:05:54.126Z,3.55
2023-04-20T14:08:23.204Z,3.25
2023-04-20T14:10:49.890Z,3.03
2023-04-20T14:13:16.575Z,3.38
2023-04-20T14:15:43.273Z,3.10
2023-04-20T14:18:10.526Z,3.38
2023-04-20T14:20:37.205Z,3.10
2023-04-20T14:23:03.830Z,2.90
2023-04-20T14:25:30.421Z,3.10
2023-04-20T14:27:57.236Z,2.60
2023-04-20T14:30:23.959Z,3.72
2023-04-20T14:32:58.875Z,3.20
2023-04-20T14:35:27.440Z,2.83
2023-04-20T14:37:54.388Z,2.75
2023-04-20T14:40:21.256Z,2.92
2023-04-20T14:42:47.888Z,2.90
2023-04-20T14:45:14.450Z,3.42
2023-04-20T14:47:41.201Z,3.00
2023-04-20T14:50:08.966Z,3.40
2023-04-20T14:52:35.808Z,3.17
2023-04-20T14:55:02.739Z,3.70
2023-04-20T14:57:29.716Z,3.75
2023-04-20T14:59:57.427Z,3.65
2023-04-20T15:02:24.551Z,4.07
2023-04-20T15:04:51.428Z,3.90
2023-04-20T15:07:18.564Z,4.00
2023-04-20T15:09:45.538Z,4.40
2023-04-20T15:12:12.194Z,4.32
2023-04-20T15:14:38.856Z,4.60
2023-04-20T15:17:05.589Z,4.80
2023-04-20T15:19:32.137Z,5.43
2023-04-20T15:22:01.536Z,4.65
2023-04-20T15:24:28.148Z,4.97
2023-04-20T15:26:54.862Z,4.70
2023-04-20T15:29:21.863Z,4.65
2023-04-20T15:31:49.582Z,4.50
2023-04-20T15:34:17.106Z,4.40
2023-04-20T15:36:44.168Z,4.28
2023-04-20T15:39:10.949Z,4.00
2023-04-20T15:41:37.573Z,4.20
2023-04-20T15:44:04.337Z,4.72
2023-04-20T15:46:31.155Z,5.18
2023-04-20T15:48:58.094Z,4.30
2023-04-20T15:51:24.979Z,4.53
2023-04-20T15:54:12.670Z,4.60
2023-04-20T15:56:39.591Z,3.80
2023-04-20T15:59:06.239Z,4.45
2023-04-20T16:01:33.723Z,4.30
2023-04-20T16:04:03.112Z,4.47
2023-04-20T16:06:29.767Z,4.22
2023-04-20T16:08:57.671Z,4.50
2023-04-20T16:11:24.509Z,4.57
2023-04-20T16:13:51.195Z,4.55
2023-04-20T16:16:18.073Z,5.50
2023-04-20T16:18:44.887Z,4.93
2023-04-20T16:21:11.584Z,5.50
2023-04-20T16:23:38.361Z,5.30
2023-04-20T16:26:05.045Z,5.30
2023-04-20T16:28:31.793Z,4.70
2023-04-20T16:30:59.022Z,4.93
2023-04-20T16:33:26.407Z,5.35
2023-04-20T16:35:53.147Z,5.32
2023-04-20T16:38:22.590Z,5.97
2023-04-20T16:40:49.335Z,6.25
2023-04-20T16:43:16.109Z,6.40
2023-04-20T16:45:43.854Z,6.38
2023-04-20T16:48:10.639Z,6.22
2023-04-20T16:50:40.159Z,7.18
2023-04-20T16:53:08.888Z,6.90
2023-04-20T16:55:35.783Z,7.50
2023-04-20T16:58:02.640Z,7.70
2023-04-20T17:00:30.710Z,7.47
2023-04-20T17:02:57.881Z,7.88
2023-04-20T17:05:24.949Z,8.68
2023-04-20T17:07:51.813Z,7.85
2023-04-20T17:10:18.804Z,8.52
2023-04-20T17:12:45.784Z,8.57
2023-04-20T17:15:12.523Z,8.70
2023-04-20T17:17:39.443Z,9.27
2023-04-20T17:20:07.262Z,8.43
2023-04-20T17:22:35.286Z,9.23
2023-04-20T17:25:05.789Z,9.60
2023-04-20T17:27:34.178Z,9.73
2023-04-20T17:30:03.814Z,10.50
2023-04-20T17:32:30.758Z,10.30
2023-04-20T17:34:58.524Z,11.40
2023-04-20T17:37:25.276Z,13.05
2023-04-20T17:39:51.986Z,11.63
2023-04-20T17:42:18.749Z,12.73
2023-04-20T17:44:45.482Z,12.65
2023-04-20T17:47:14.741Z,13.25
2023-04-20T17:49:41.641Z,14.45
2023-04-20T17:52:09.582Z,14.82
2023-04-20T17:54:36.205Z,13.18
2023-04-20T17:57:02.873Z,14.50
2023-04-20T17:59:31.316Z,16.25
2023-04-20T18:01:58.143Z,14.40
2023-04-20T18:04:25.656Z,14.88
2023-04-20T18:06:52.905Z,14.68
2023-04-20T18:09:19.655Z,14.02
2023-04-20T18:11:46.460Z,13.95
2023-04-20T18:14:13.263Z,16.00
2023-04-20T18:16:42.060Z,15.05
2023-04-20T18:19:11.431Z,16.42
2023-04-20T18:21:42.989Z,17.20
2023-04-20T18:24:10.789Z,16.08
2023-04-20T18:26:37.817Z,17.30
2023-04-20T18:29:09.745Z,18.70
2023-04-20T18:31:50.770Z,19.05
2023-04-20T18:34:27.657Z,19.67
2023-04-20T18:39:41.573Z,18.35
2023-04-20T18:42:18.006Z,20.67
2023-04-20T18:45:04.542Z,21.50
2023-04-20T18:47:34.754Z,23.42
2023-04-20T18:52:45.916Z,21.13
2023-04-20T18:55:32.739Z,22.10
2023-04-20T18:58:25.551Z,22.63
2023-04-20T19:00:52.407Z,23.35
2023-04-20T19:03:19.471Z,21.95
2023-04-20T19:05:46.491Z,25.13
2023-04-20T19:08:20.940Z,25.15
2023-04-20T19:10:47.658Z,21.00
2023-04-20T19:13:24.858Z,21.15
2023-04-20T19:16:03.847Z,22.70
2023-04-20T19:18:34.116Z,22.02
2023-04-20T19:21:03.304Z,24.13
2023-04-20T19:23:30.079Z,21.70
2023-04-20T19:25:57.059Z,23.40
2023-04-20T19:28:24.380Z,25.05
2023-04-20T19:30:51.352Z,23.35
2023-04-20T19:33:23.457Z,22.02
2023-04-20T19:36:16.276Z,22.98
2023-04-20T19:39:16.754Z,22.85
2023-04-20T19:41:43.600Z,23.85
2023-04-20T19:44:12.020Z,22.23
2023-04-20T19:46:40.408Z,21.65
2023-04-20T19:49:07.407Z,24.92
2023-04-20T19:51:33.982Z,25.70
2023-04-20T19:54:01.490Z,21.63
2023-04-20T19:56:28.226Z,24.42
2023-04-20T19:58:54.891Z,23.20
2023-04-20T20:01:21.555Z,24.23
2023-04-20T20:03:48.606Z,25.83
2023-04-20T20:06:15.686Z,22.73
2023-04-20T20:08:42.615Z,25.85
2023-04-20T20:11:09.514Z,23.88
2023-04-20T20:13:36.378Z,23.55
2023-04-20T20:16:04.151Z,23.52
2023-04-20T20:18:31.161Z,24.25
2023-04-20T20:20:57.770Z,25.27
2023-04-20T20:23:24.450Z,24.05
2023-04-20T20:25:51.317Z,26.35
2023-04-20T20:28:18.114Z,27.65
2023-04-20T20:30:45.343Z,25.85
2023-04-20T20:33:12.430Z,25.63
2023-04-20T20:35:39.736Z,25.73
2023-04-20T20:38:07.649Z,26.00
2023-04-20T20:40:35.017Z,26.25
2023-04-20T20:43:02.119Z,26.00
2023-04-20T20:45:28.931Z,27.83
2023-04-20T20:47:56.312Z,28.35
2023-04-20T20:50:23.412Z,28.80
2023-04-20T20:52:50.261Z,27.58
2023-04-20T20:55:17.090Z,25.60
2023-04-20T20:57:43.733Z,27.75
2023-04-20T21:00:11.774Z,28.73
2023-04-20T21:02:39.235Z,28.88
2023-04-20T21:05:06.969Z,26.88
2023-04-20T21:07:33.915Z,27.45
2023-04-20T21:10:00.652Z,27.98
2023-04-20T21:12:27.332Z,27.17
2023-04-20T21:14:54.226Z,26.48
2023-04-20T21:17:21.076Z,26.73
2023-04-20T21:19:47.807Z,27.27
2023-04-20T21:22:14.436Z,27.75
2023-04-20T21:24:41.175Z,25.45
2023-04-20T21:27:07.852Z,28.02
2023-04-20T21:29:34.636Z,27.70
2023-04-20T21:32:01.416Z,25.20
2023-04-20T21:34:28.308Z,25.92
2023-04-20T21:36:54.949Z,29.73
2023-04-20T21:39:21.571Z,29.80
2023-04-20T21:41:48.256Z,28.13
2023-04-20T21:44:14.915Z,29.75
2023-04-20T21:46:41.641Z,28.92
2023-04-20T21:49:08.237Z,27.23
2023-04-20T21:51:34.813Z,31.88
2023-04-20T21:54:01.496Z,30.40
2023-04-20T21:56:28.086Z,28.95
2023-04-20T21:58:54.611Z,28.13
2023-04-20T22:01:21.259Z,30.88
2023-04-20T22:03:47.908Z,32.10
2023-04-20T22:06:14.716Z,33.53
2023-04-20T22:08:41.930Z,31.08
2023-04-20T22:11:09.136Z,32.78
2023-04-20T22:13:36.950Z,28.60
2023-04-20T22:16:04.043Z,30.15
2023-04-20T22:18:30.919Z,27.45
2023-04-20T22:20:57.630Z,30.63
2023-04-20T22:23:24.329Z,31.75
2023-04-20T22:26:14.416Z,30.00
2023-04-20T22:28:41.345Z,29.90
2023-04-20T22:31:08.075Z,32.05
2023-04-20T22:33:34.714Z,32.83
2023-04-20T22:36:01.299Z,31.13
2023-04-20T22:38:28.140Z,33.22
2023-04-20T22:40:55.034Z,30.40
2023-04-20T22:43:21.781Z,34.17
2023-04-20T22:45:48.712Z,33.97
2023-04-20T22:48:15.287Z,30.67
2023-04-20T22:50:41.959Z,32.75
2023-04-20T22:53:08.554Z,31.23
2023-04-20T22:55:35.134Z,30.83
2023-04-20T22:58:03.348Z,28.02
2023-04-20T23:00:30.056Z,32.63
2023-04-20T23:03:18.843Z,30.60
2023-04-20T23:05:45.777Z,30.88
2023-04-20T23:08:13.590Z,32.30
2023-04-20T23:10:40.770Z,30.00
2023-04-20T23:13:08.151Z,29.90
2023-04-20T23:15:34.977Z,31.17
2023-04-20T23:18:01.627Z,30.75
2023-04-20T23:20:28.699Z,33.22
2023-04-20T23:22:55.476Z,33.30
2023-04-20T23:25:22.030Z,30.55
2023-04-20T23:27:49.757Z,32.88
2023-04-20T23:30:16.548Z,33.22
2023-04-20T23:32:44.577Z,33.25
2023-04-20T23:35:11.571Z,32.20
2023-04-20T23:37:38.155Z,30.08
2023-04-20T23:40:07.156Z,33.20
2023-04-20T23:42:37.205Z,32.03
2023-04-20T23:45:05.449Z,30.88
2023-04-20T23:47:32.388Z,31.50
2023-04-20T23:49:59.023Z,32.33
2023-04-20T23:52:25.699Z,30.58
2023-04-20T23:54:52.361Z,31.27
2023-04-20T23:57:18.949Z,32.17
2023-04-20T23:59:45.870Z,29.48
